Algona, Iowa
Current Conditions -  °F | °C
As of 12:15 AM on Monday 26 Jan 2015 (Local Time) from KAXA Reporting Station
Overcast Overcast  
Wind Chill: 22°   Ceiling: 1400
Heat Index: 30°   Visibility: 10mi
Dew Point: 28°   Wind: 9mph
Humidity: 93%   Direction: 190°S
Pressure: 29.99"   Gusts: NA
Location:  43.07°N, 94.23°W
Report Text: KAXA 260615Z AUTO 19008KT 10SM OVC014 M01/M02 A2999 RMK AO2
Loading
Personal Weather Stations






























Interactive Weather Map New forecast layout! Learn more

10-Day Weather Forecast

Advertisements
Track Severe Weather on mobile